Time;durP1;ratioP1;P1;durP2;ratioP2;P2;SDS_P1;SDS_P2;PMS_P1;PMS_P2;Temp;Humidity;BMP_temperature;BMP_pressure;BME280_temperature;BME280_humidity;BME280_pressure;Samples;Min_cycle;Max_cycle;Signal;HPM_P1;HPM_P2
2023/11/20 00:01:59;;;;;;;51.55;26.38;;;;;;;;;;6251096;22;20011;-95
2023/11/20 00:04:25;;;;;;;37.33;21.50;;;;;;;;;;6251239;22;20380;-96
2023/11/20 00:06:54;;;;;;;45.88;23.85;;;;;;;;;;6251227;22;20003;-96
2023/11/20 00:09:20;;;;;;;35.78;20.25;;;;;;;;;;6251250;22;20363;-95
2023/11/20 00:11:46;;;;;;;37.38;21.48;;;;;;;;;;6251518;22;20050;-95
2023/11/20 00:14:13;;;;;;;39.00;20.92;;;;;;;;;;6251308;22;20083;-96
2023/11/20 00:16:39;;;;;;;44.25;22.65;;;;;;;;;;6246721;23;20031;-95
2023/11/20 00:19:10;;;;;;;91.05;26.90;;;;;;;;;;6247366;23;20004;-96
2023/11/20 00:21:39;;;;;;;52.10;21.92;;;;;;;;;;6246208;23;20016;-94
2023/11/20 00:24:06;;;;;;;73.65;24.73;;;;;;;;;;6246262;23;20027;-93
2023/11/20 00:26:32;;;;;;;79.32;26.75;;;;;;;;;;6248042;23;20011;-94
2023/11/20 00:28:59;;;;;;;188.13;29.50;;;;;;;;;;6247710;23;20000;-95
2023/11/20 00:31:25;;;;;;;105.57;27.73;;;;;;;;;;6246981;23;20012;-96
2023/11/20 00:33:51;;;;;;;272.40;35.45;;;;;;;;;;6246563;23;20000;-95
2023/11/20 00:36:18;;;;;;;91.15;24.80;;;;;;;;;;6246274;23;20004;-96
2023/11/20 00:38:45;;;;;;;260.63;33.92;;;;;;;;;;6246438;23;20010;-95
2023/11/20 00:41:15;;;;;;;156.95;28.40;;;;;;;;;;6247188;23;20008;-96
2023/11/20 00:43:45;;;;;;;55.15;23.60;;;;;;;;;;6247310;23;20005;-96
2023/11/20 00:46:11;;;;;;;174.27;28.52;;;;;;;;;;6247698;23;20012;-96
2023/11/20 00:48:37;;;;;;;197.15;28.77;;;;;;;;;;6245769;23;20008;-95
2023/11/20 00:51:07;;;;;;;191.20;29.02;;;;;;;;;;6245770;23;20314;-95
2023/11/20 00:53:33;;;;;;;185.00;29.38;;;;;;;;;;6245777;23;20000;-95
2023/11/20 00:55:59;;;;;;;207.65;27.20;;;;;;;;;;6246220;23;20373;-96
2023/11/20 00:58:25;;;;;;;47.28;23.08;;;;;;;;;;6246305;23;20000;-96
2023/11/20 01:00:54;;;;;;;99.70;24.67;;;;;;;;;;6260922;23;20008;-94
2023/11/20 01:03:20;;;;;;;302.25;36.90;;;;;;;;;;6252337;23;20402;-96
2023/11/20 01:05:46;;;;;;;147.13;24.70;;;;;;;;;;6247566;23;20009;-96
2023/11/20 01:08:12;;;;;;;222.65;27.40;;;;;;;;;;6246715;23;20000;-95
2023/11/20 01:10:41;;;;;;;267.17;36.28;;;;;;;;;;6246392;23;20016;-96
2023/11/20 01:13:09;;;;;;;96.82;25.05;;;;;;;;;;6247055;23;20079;-95
2023/11/20 01:18:24;;;;;;;305.25;40.15;;;;;;;;;;6279012;22;20012;-96
2023/11/20 01:20:58;;;;;;;104.40;25.85;;;;;;;;;;6252567;22;20004;-96
2023/11/20 01:23:24;;;;;;;;;;;;;;;;;;6252036;22;20004;-96
2023/11/20 01:25:51;;;;;;;107.68;25.30;;;;;;;;;;6251367;22;19973;-95
2023/11/20 01:28:17;;;;;;;86.47;22.73;;;;;;;;;;6251467;22;20015;-96
2023/11/20 01:30:43;;;;;;;250.73;34.70;;;;;;;;;;6251140;22;20011;-96
2023/11/20 01:33:10;;;;;;;149.68;25.25;;;;;;;;;;6252298;22;20011;-96
2023/11/20 01:35:43;;;;;;;49.10;23.27;;;;;;;;;;6253883;22;20421;-95
2023/11/20 01:38:33;;;;;;;53.28;21.33;;;;;;;;;;6253584;22;20011;-96
2023/11/20 01:41:42;;;;;;;75.70;25.75;;;;;;;;;;6253872;22;20003;-96
2023/11/20 01:44:12;;;;;;;213.60;33.50;;;;;;;;;;6275984;22;19999;-96
2023/11/20 01:46:38;;;;;;;103.60;21.48;;;;;;;;;;6253073;22;20018;-96
2023/11/20 01:49:05;;;;;;;60.55;21.60;;;;;;;;;;6253658;22;20007;-96
2023/11/20 01:51:46;;;;;;;164.45;28.63;;;;;;;;;;6253675;22;20318;-95
2023/11/20 01:54:47;;;;;;;62.97;20.10;;;;;;;;;;6253900;22;19999;-96
2023/11/20 01:57:32;;;;;;;87.05;22.85;;;;;;;;;;6225400;22;20004;-96
2023/11/20 01:59:58;;;;;;;106.47;22.60;;;;;;;;;;6253382;22;20019;-93
2023/11/20 02:02:50;;;;;;;53.35;21.40;;;;;;;;;;6253219;22;20007;-96
2023/11/20 02:05:30;;;;;;;;;;;;;;;;;;;;;
2023/11/20 02:07:56;;;;;;;94.88;21.17;;;;;;;;;;6280503;22;20492;-96
2023/11/20 02:10:33;;;;;;;225.23;34.58;;;;;;;;;;6253826;22;20085;-96
2023/11/20 02:13:00;;;;;;;62.58;21.73;;;;;;;;;;6253504;22;20000;-95
2023/11/20 02:15:26;;;;;;;304.45;37.92;;;;;;;;;;6253150;22;20436;-95
2023/11/20 02:17:52;;;;;;;122.75;23.95;;;;;;;;;;6252968;22;19999;-95
2023/11/20 02:20:19;;;;;;;135.65;25.63;;;;;;;;;;6252991;22;19999;-96
2023/11/20 02:22:45;;;;;;;82.30;20.27;;;;;;;;;;6253602;22;20008;-96
2023/11/20 02:25:11;;;;;;;53.75;20.52;;;;;;;;;;6253191;22;20004;-96
2023/11/20 02:27:43;;;;;;;74.15;21.73;;;;;;;;;;6254040;22;20337;-95
2023/11/20 02:30:09;;;;;;;151.10;26.95;;;;;;;;;;6254680;22;20012;-95
2023/11/20 02:32:35;;;;;;;47.63;21.80;;;;;;;;;;6252850;22;20007;-96
2023/11/20 02:35:02;;;;;;;129.23;21.95;;;;;;;;;;6252686;22;20037;-95
2023/11/20 02:37:34;;;;;;;63.67;23.65;;;;;;;;;;6252050;22;20014;-95
2023/11/20 02:40:05;;;;;;;37.97;19.02;;;;;;;;;;6252151;22;20061;-93
2023/11/20 02:42:32;;;;;;;66.97;20.08;;;;;;;;;;6251848;22;19999;-95
2023/11/20 02:45:01;;;;;;;122.45;24.65;;;;;;;;;;6251141;22;20012;-93
2023/11/20 02:47:27;;;;;;;84.75;21.10;;;;;;;;;;6251446;22;20007;-96
2023/11/20 02:49:53;;;;;;;98.07;21.83;;;;;;;;;;6251189;22;20011;-94
2023/11/20 02:52:20;;;;;;;141.43;23.10;;;;;;;;;;6251591;22;20010;-96
2023/11/20 02:54:50;;;;;;;42.15;18.20;;;;;;;;;;6250993;22;20080;-96
2023/11/20 02:57:16;;;;;;;134.05;27.35;;;;;;;;;;6251200;22;20026;-94
2023/11/20 02:59:45;;;;;;;78.38;21.92;;;;;;;;;;6251401;22;20003;-96
2023/11/20 03:02:15;;;;;;;100.05;24.02;;;;;;;;;;6251650;22;20302;-94
2023/11/20 03:04:44;;;;;;;39.55;20.55;;;;;;;;;;6251918;22;20039;-95
2023/11/20 03:07:10;;;;;;;104.78;23.70;;;;;;;;;;6251706;22;20070;-96
2023/11/20 03:09:36;;;;;;;109.13;21.05;;;;;;;;;;6251869;22;20008;-96
2023/11/20 03:12:04;;;;;;;49.10;18.40;;;;;;;;;;6251639;22;20042;-95
2023/11/20 03:14:30;;;;;;;170.55;28.00;;;;;;;;;;6251322;22;20083;-96
2023/11/20 03:16:56;;;;;;;44.25;19.48;;;;;;;;;;6246065;23;20093;-94
2023/11/20 03:19:22;;;;;;;108.28;24.85;;;;;;;;;;6246498;23;20000;-94
2023/11/20 03:21:48;;;;;;;139.68;25.02;;;;;;;;;;6246031;23;20004;-94
2023/11/20 03:24:15;;;;;;;121.15;24.35;;;;;;;;;;6246565;23;20000;-95
2023/11/20 03:26:41;;;;;;;79.57;23.10;;;;;;;;;;6246095;23;20448;-96
2023/11/20 03:29:07;;;;;;;41.05;19.35;;;;;;;;;;6246971;23;20008;-95
2023/11/20 03:31:39;;;;;;;310.90;40.30;;;;;;;;;;6246949;23;20035;-95
2023/11/20 03:34:06;;;;;;;73.95;21.45;;;;;;;;;;6246476;23;20004;-96
2023/11/20 03:36:33;;;;;;;253.40;32.00;;;;;;;;;;6246164;23;20004;-95
2023/11/20 03:39:00;;;;;;;90.95;22.33;;;;;;;;;;6246398;23;20018;-95
2023/11/20 03:41:26;;;;;;;44.28;20.27;;;;;;;;;;6246641;23;20012;-95
2023/11/20 03:43:52;;;;;;;140.85;23.83;;;;;;;;;;6246283;23;20426;-96
2023/11/20 03:46:19;;;;;;;117.90;24.80;;;;;;;;;;6245998;23;20008;-96
2023/11/20 03:48:45;;;;;;;152.05;27.02;;;;;;;;;;6246534;23;20004;-96
2023/11/20 03:51:11;;;;;;;115.13;30.38;;;;;;;;;;6246068;23;20472;-96
2023/11/20 03:53:38;;;;;;;94.47;25.50;;;;;;;;;;6246389;23;20015;-94
2023/11/20 03:56:04;;;;;;;48.83;22.52;;;;;;;;;;6245912;23;20004;-96
2023/11/20 03:58:30;;;;;;;67.28;22.65;;;;;;;;;;6246539;23;20027;-95
2023/11/20 04:00:56;;;;;;;70.13;22.35;;;;;;;;;;6246670;23;20087;-96
2023/11/20 04:03:23;;;;;;;36.33;20.83;;;;;;;;;;6246153;23;20007;-96
2023/11/20 04:05:49;;;;;;;60.45;21.85;;;;;;;;;;6246298;23;20005;-92
2023/11/20 04:08:15;;;;;;;146.68;28.02;;;;;;;;;;6246307;23;20062;-96
2023/11/20 04:10:42;;;;;;;63.63;23.23;;;;;;;;;;6245656;23;20016;-94
2023/11/20 04:13:10;;;;;;;87.82;25.83;;;;;;;;;;6246092;23;20032;-95
2023/11/20 04:15:36;;;;;;;51.80;22.98;;;;;;;;;;6249015;22;20068;-95
2023/11/20 04:18:03;;;;;;;142.32;31.40;;;;;;;;;;6250974;22;20027;-96
2023/11/20 04:20:29;;;;;;;59.92;21.77;;;;;;;;;;6251021;22;20004;-95
2023/11/20 04:22:55;;;;;;;102.80;24.77;;;;;;;;;;6251166;22;20049;-95
2023/11/20 04:25:22;;;;;;;124.38;25.42;;;;;;;;;;6251035;22;20337;-95
2023/11/20 04:27:51;;;;;;;140.07;27.23;;;;;;;;;;6250648;22;20035;-96
2023/11/20 04:30:22;;;;;;;137.77;27.50;;;;;;;;;;6251236;22;20011;-94
2023/11/20 04:32:48;;;;;;;49.85;22.40;;;;;;;;;;6251404;22;20010;-96
2023/11/20 04:35:14;;;;;;;199.90;30.85;;;;;;;;;;6251450;22;20019;-96
2023/11/20 04:37:40;;;;;;;127.85;29.50;;;;;;;;;;6251510;22;20008;-96
2023/11/20 04:40:07;;;;;;;86.65;25.70;;;;;;;;;;6251247;22;20003;-94
2023/11/20 04:42:33;;;;;;;169.00;33.72;;;;;;;;;;6251299;22;20010;-96
2023/11/20 04:45:00;;;;;;;162.45;29.48;;;;;;;;;;6251074;22;20374;-95
2023/11/20 04:47:30;;;;;;;97.68;29.45;;;;;;;;;;6250787;22;20337;-94
2023/11/20 04:49:58;;;;;;;52.50;20.58;;;;;;;;;;6250771;22;20061;-96
2023/11/20 04:52:28;;;;;;;40.60;20.38;;;;;;;;;;6251356;22;20010;-95
2023/11/20 04:54:57;;;;;;;68.90;20.60;;;;;;;;;;6250830;22;20428;-95
2023/11/20 04:57:23;;;;;;;38.08;19.38;;;;;;;;;;6250393;22;19999;-94
2023/11/20 04:59:49;;;;;;;52.60;20.13;;;;;;;;;;6250396;22;20062;-96
2023/11/20 05:02:15;;;;;;;45.53;19.10;;;;;;;;;;6250599;22;20086;-95
2023/11/20 05:04:42;;;;;;;123.50;27.00;;;;;;;;;;6250233;22;20310;-96
2023/11/20 05:07:08;;;;;;;49.28;20.48;;;;;;;;;;6253002;22;20417;-96
2023/11/20 05:09:35;;;;;;;46.40;19.55;;;;;;;;;;6252453;22;20007;-96
2023/11/20 05:12:02;;;;;;;43.72;19.55;;;;;;;;;;6252645;22;20007;-95
2023/11/20 05:14:28;;;;;;;115.00;24.02;;;;;;;;;;6252926;22;20007;-95
2023/11/20 05:16:54;;;;;;;84.68;25.83;;;;;;;;;;6253079;22;20047;-95
2023/11/20 05:19:20;;;;;;;129.02;23.98;;;;;;;;;;6252957;22;20003;-95
2023/11/20 05:21:47;;;;;;;53.92;21.60;;;;;;;;;;6252558;22;20010;-95
2023/11/20 05:24:14;;;;;;;64.28;20.38;;;;;;;;;;6252807;22;20006;-96
2023/11/20 05:26:41;;;;;;;122.15;26.13;;;;;;;;;;6252701;22;20028;-96
2023/11/20 05:29:11;;;;;;;70.10;23.10;;;;;;;;;;6252819;22;20057;-95
2023/11/20 05:31:38;;;;;;;185.68;30.50;;;;;;;;;;6252106;22;20015;-94
2023/11/20 05:34:04;;;;;;;100.20;24.88;;;;;;;;;;6253214;22;20079;-96
2023/11/20 05:36:30;;;;;;;381.85;44.53;;;;;;;;;;6253280;22;20008;-96
2023/11/20 05:39:09;;;;;;;52.33;20.52;;;;;;;;;;6252503;22;20505;-96
2023/11/20 05:41:35;;;;;;;68.47;22.73;;;;;;;;;;6253479;22;20007;-92
2023/11/20 05:44:08;;;;;;;75.03;23.85;;;;;;;;;;6253436;22;20000;-94
2023/11/20 05:46:35;;;;;;;55.67;19.92;;;;;;;;;;6252904;22;20011;-96
2023/11/20 05:49:07;;;;;;;37.80;21.48;;;;;;;;;;6252290;22;20000;-95
2023/11/20 05:51:49;;;;;;;114.65;24.58;;;;;;;;;;6252851;22;20476;-95
2023/11/20 05:54:16;;;;;;;83.75;25.25;;;;;;;;;;6252555;22;20003;-96
2023/11/20 06:00:10;;;;;;;51.03;21.27;;;;;;;;;;6244499;22;20070;-95
2023/11/20 06:05:48;;;;;;;115.53;27.63;;;;;;;;;;6280703;22;20010;-96
2023/11/20 06:08:34;;;;;;;36.78;20.75;;;;;;;;;;6255394;22;19988;-96
2023/11/20 06:11:00;;;;;;;34.33;19.08;;;;;;;;;;6253837;22;20016;-96
2023/11/20 06:13:26;;;;;;;38.92;19.35;;;;;;;;;;6250110;22;19996;-96
2023/11/20 06:19:02;;;;;;;37.03;20.55;;;;;;;;;;6280447;22;20069;-96
2023/11/20 06:21:28;;;;;;;69.97;22.73;;;;;;;;;;6252107;22;20011;-95
2023/11/20 06:23:55;;;;;;;44.15;22.08;;;;;;;;;;6252180;22;20004;-95
2023/11/20 06:26:25;;;;;;;67.75;24.52;;;;;;;;;;6252248;22;20102;-95
2023/11/20 06:28:55;;;;;;;146.60;36.45;;;;;;;;;;6252187;22;20003;-95
2023/11/20 06:31:21;;;;;;;43.20;20.08;;;;;;;;;;6253037;22;20516;-94
2023/11/20 06:33:53;;;;;;;60.25;24.33;;;;;;;;;;6251885;22;20073;-96
2023/11/20 06:36:20;;;;;;;76.00;26.73;;;;;;;;;;6252849;22;20034;-96
2023/11/20 06:38:47;;;;;;;67.55;28.52;;;;;;;;;;6251881;22;20047;-95
2023/11/20 06:41:16;;;;;;;76.70;28.85;;;;;;;;;;6251844;22;20027;-95
2023/11/20 06:44:07;;;;;;;42.30;23.83;;;;;;;;;;6252311;22;20433;-96
2023/11/20 06:46:32;;;;;;;63.17;26.63;;;;;;;;;;6278016;22;20015;-95
2023/11/20 06:48:58;;;;;;;44.97;22.92;;;;;;;;;;6251808;22;20004;-96
2023/11/20 06:51:25;;;;;;;36.95;20.15;;;;;;;;;;6251355;22;20015;-96
2023/11/20 06:53:51;;;;;;;37.08;19.75;;;;;;;;;;6251449;22;20069;-95
2023/11/20 06:56:21;;;;;;;28.48;17.52;;;;;;;;;;6251438;22;20079;-96
2023/11/20 06:58:48;;;;;;;36.35;19.60;;;;;;;;;;6251465;22;20122;-96
2023/11/20 07:01:14;;;;;;;41.22;21.92;;;;;;;;;;6252021;22;20012;-96
2023/11/20 07:03:43;;;;;;;38.00;21.08;;;;;;;;;;6251331;22;20004;-95
2023/11/20 07:06:28;;;;;;;58.65;24.85;;;;;;;;;;6251284;22;20433;-95
2023/11/20 07:08:54;;;;;;;52.75;25.27;;;;;;;;;;6251729;22;20030;-96
2023/11/20 07:11:21;;;;;;;51.70;24.65;;;;;;;;;;6251253;22;20019;-96
2023/11/20 07:13:47;;;;;;;63.58;25.42;;;;;;;;;;6251548;22;20010;-95
2023/11/20 07:16:14;;;;;;;60.92;29.13;;;;;;;;;;6251058;22;20016;-96
2023/11/20 07:18:48;;;;;;;49.60;24.70;;;;;;;;;;6251100;22;20099;-96
2023/11/20 07:21:32;;;;;;;;;;;;;;;;;;;;;
2023/11/20 07:27:12;;;;;;;37.28;22.73;;;;;;;;;;6262123;22;19899;-96
2023/11/20 07:29:59;;;;;;;46.22;22.85;;;;;;;;;;6250913;22;20095;-95
2023/11/20 07:32:37;;;;;;;37.45;21.55;;;;;;;;;;6250914;22;20004;-95
2023/11/20 07:35:19;;;;;;;33.85;18.95;;;;;;;;;;6250845;22;20027;-94
2023/11/20 07:37:48;;;;;;;36.22;20.67;;;;;;;;;;6251328;22;20075;-95
2023/11/20 07:40:24;;;;;;;46.35;25.75;;;;;;;;;;6249634;22;20094;-94
2023/11/20 07:42:54;;;;;;;44.15;26.58;;;;;;;;;;6250167;22;20011;-94
2023/11/20 07:45:24;;;;;;;40.22;23.23;;;;;;;;;;6248701;22;20000;-93
2023/11/20 07:47:50;;;;;;;37.47;21.80;;;;;;;;;;6251212;22;20008;-93
2023/11/20 07:50:19;;;;;;;38.28;22.05;;;;;;;;;;6250580;22;20015;-94
2023/11/20 07:55:49;;;;;;;33.47;20.60;;;;;;;;;;6259407;22;20008;-93
2023/11/20 07:58:15;;;;;;;35.60;20.85;;;;;;;;;;6250740;22;20003;-94
2023/11/20 08:00:48;;;;;;;32.30;18.85;;;;;;;;;;6252587;22;20479;-96
2023/11/20 08:03:14;;;;;;;46.70;23.17;;;;;;;;;;6250999;22;20057;-95
2023/11/20 08:05:45;;;;;;;40.95;22.58;;;;;;;;;;6251762;22;20031;-95
2023/11/20 08:08:14;;;;;;;37.45;21.95;;;;;;;;;;6252945;22;20049;-95
2023/11/20 08:19:46;;;;;;;;;;;;;;;;;;;;;
2023/11/20 08:25:25;;;;;;;28.70;18.52;;;;;;;;;;6150804;23;20382;-95
2023/11/20 08:28:12;;;;;;;32.88;20.30;;;;;;;;;;6186410;23;20056;-96
2023/11/20 08:36:47;;;;;;;29.33;19.05;;;;;;;;;;6099480;23;20017;-95
2023/11/20 08:50:09;;;;;;;29.75;18.60;;;;;;;;;;6277078;22;20050;-96
2023/11/20 09:16:16;;;;;;;14.65;6.60;;;;;;;;;;6245356;22;20425;-96
2023/11/20 09:21:54;;;;;;;8.77;2.92;;;;;;;;;;6186545;23;20129;-96
2023/11/20 09:25:26;;;;;;;;;;;;;;;;;;;;;
2023/11/20 09:28:08;;;;;;;8.65;3.25;;;;;;;;;;6171886;23;20005;-96
2023/11/20 09:30:41;;;;;;;6.72;3.28;;;;;;;;;;6113116;23;20057;-96
2023/11/20 09:33:35;;;;;;;7.65;3.80;;;;;;;;;;6159708;23;20423;-96
2023/11/20 09:39:35;;;;;;;;;;;;;;;;;;;;;
2023/11/20 09:42:22;;;;;;;10.93;4.53;;;;;;;;;;6185163;23;20482;-96
2023/11/20 09:45:13;;;;;;;7.97;3.58;;;;;;;;;;6184463;23;20386;-96
2023/11/20 09:47:37;;;;;;;6.55;2.97;;;;;;;;;;6184251;23;20144;-96
2023/11/20 09:50:17;;;;;;;5.93;3.00;;;;;;;;;;6200784;23;20012;-96
2023/11/20 09:53:08;;;;;;;6.40;2.85;;;;;;;;;;6222360;23;20005;-96
2023/11/20 09:58:20;;;;;;;5.72;4.00;;;;;;;;;;6233051;23;20011;-96
2023/11/20 10:00:47;;;;;;;6.30;3.35;;;;;;;;;;6223809;23;20000;-93
2023/11/20 10:03:15;;;;;;;4.82;2.42;;;;;;;;;;6221611;23;20004;-96
2023/11/20 10:05:48;;;;;;;5.78;2.38;;;;;;;;;;6221363;23;20000;-93
2023/11/20 10:08:15;;;;;;;5.53;2.05;;;;;;;;;;6222034;23;20012;-95
2023/11/20 10:10:42;;;;;;;4.30;2.10;;;;;;;;;;6221871;23;20016;-95
2023/11/20 10:13:11;;;;;;;5.35;2.33;;;;;;;;;;6221736;23;20078;-94
2023/11/20 10:15:37;;;;;;;5.80;2.08;;;;;;;;;;6221169;23;20069;-95
2023/11/20 10:18:03;;;;;;;4.60;2.35;;;;;;;;;;6221569;23;20011;-95
2023/11/20 10:20:45;;;;;;;4.63;2.47;;;;;;;;;;6221503;23;20004;-94
2023/11/20 10:23:13;;;;;;;6.15;2.83;;;;;;;;;;6221448;23;20481;-95
2023/11/20 10:25:45;;;;;;;6.40;2.33;;;;;;;;;;6221629;23;20008;-95
2023/11/20 10:28:13;;;;;;;6.45;2.67;;;;;;;;;;6222266;23;20004;-95
2023/11/20 10:30:43;;;;;;;6.20;4.35;;;;;;;;;;6221235;23;20023;-95
2023/11/20 10:33:19;;;;;;;8.93;4.70;;;;;;;;;;6221355;23;20087;-95
2023/11/20 10:35:54;;;;;;;8.48;5.07;;;;;;;;;;6221475;23;20007;-94
2023/11/20 10:38:25;;;;;;;8.20;4.63;;;;;;;;;;6221123;23;20004;-94
2023/11/20 10:40:57;;;;;;;9.55;5.40;;;;;;;;;;6222916;23;20004;-94
2023/11/20 10:43:23;;;;;;;7.85;4.75;;;;;;;;;;6221525;23;20012;-93
2023/11/20 10:45:49;;;;;;;8.98;4.45;;;;;;;;;;6221488;23;20000;-93
2023/11/20 10:48:16;;;;;;;5.70;3.47;;;;;;;;;;6221028;23;20004;-94
2023/11/20 10:50:44;;;;;;;7.10;3.10;;;;;;;;;;6222850;23;20024;-93
2023/11/20 10:53:10;;;;;;;8.60;3.65;;;;;;;;;;6221189;23;20007;-93
2023/11/20 10:55:49;;;;;;;5.32;2.75;;;;;;;;;;6221353;23;20004;-93
2023/11/20 10:58:16;;;;;;;3.75;2.00;;;;;;;;;;6221021;23;20012;-93
2023/11/20 11:00:49;;;;;;;5.05;2.20;;;;;;;;;;6221231;23;20004;-94
2023/11/20 11:03:19;;;;;;;11.88;2.75;;;;;;;;;;6221423;23;20031;-93
2023/11/20 11:06:00;;;;;;;9.63;2.88;;;;;;;;;;6220573;23;20004;-94
2023/11/20 11:08:27;;;;;;;6.00;2.05;;;;;;;;;;6220811;23;20008;-93
2023/11/20 11:10:53;;;;;;;7.68;2.28;;;;;;;;;;6220853;23;20016;-95
2023/11/20 11:13:23;;;;;;;8.90;2.47;;;;;;;;;;6221019;23;20004;-95
2023/11/20 11:15:56;;;;;;;7.95;2.42;;;;;;;;;;6220423;23;20063;-94
2023/11/20 11:18:27;;;;;;;5.20;1.73;;;;;;;;;;6220841;23;20007;-95
2023/11/20 11:20:54;;;;;;;10.13;2.28;;;;;;;;;;6220628;23;20008;-95
2023/11/20 11:23:41;;;;;;;7.75;2.47;;;;;;;;;;6220720;23;20087;-95
2023/11/20 11:26:13;;;;;;;13.25;1.98;;;;;;;;;;6220207;23;20437;-94
2023/11/20 11:28:45;;;;;;;8.35;2.25;;;;;;;;;;6220851;23;20059;-94
2023/11/20 11:31:12;;;;;;;9.55;1.90;;;;;;;;;;6220345;23;20377;-94
2023/11/20 11:34:17;;;;;;;8.40;2.70;;;;;;;;;;6221293;23;20007;-95
2023/11/20 11:36:45;;;;;;;7.28;2.78;;;;;;;;;;6101547;23;20041;-95
2023/11/20 11:39:37;;;;;;;8.73;2.08;;;;;;;;;;6126445;23;20009;-95
2023/11/20 11:42:04;;;;;;;9.63;1.88;;;;;;;;;;6176321;23;20000;-95
2023/11/20 11:44:53;;;;;;;10.00;2.50;;;;;;;;;;6220926;23;20433;-95
2023/11/20 11:47:31;;;;;;;9.48;2.30;;;;;;;;;;6216856;23;20556;-96
2023/11/20 11:49:58;;;;;;;9.02;2.08;;;;;;;;;;6220089;23;20022;-94
2023/11/20 11:52:31;;;;;;;6.68;1.70;;;;;;;;;;6220315;23;20090;-93
2023/11/20 11:55:13;;;;;;;7.97;2.10;;;;;;;;;;6218945;23;20425;-95
2023/11/20 11:57:42;;;;;;;7.53;1.75;;;;;;;;;;6220849;23;20036;-94
2023/11/20 12:00:22;;;;;;;6.45;2.25;;;;;;;;;;6221600;23;20426;-96
2023/11/20 12:03:17;;;;;;;7.60;1.65;;;;;;;;;;6220967;23;20004;-94
2023/11/20 12:05:55;;;;;;;6.68;1.65;;;;;;;;;;6220453;23;20027;-95
2023/11/20 12:08:22;;;;;;;5.88;2.05;;;;;;;;;;6220480;23;19996;-94
2023/11/20 12:11:01;;;;;;;9.35;2.08;;;;;;;;;;6220015;23;20012;-96
2023/11/20 12:13:27;;;;;;;10.27;2.78;;;;;;;;;;6220238;23;20385;-96
2023/11/20 12:16:03;;;;;;;12.18;2.70;;;;;;;;;;6220346;23;20020;-94
2023/11/20 12:18:33;;;;;;;5.43;1.73;;;;;;;;;;6220940;23;20003;-95
2023/11/20 12:21:13;;;;;;;8.13;2.05;;;;;;;;;;6220337;23;20011;-94
2023/11/20 12:23:42;;;;;;;6.10;2.10;;;;;;;;;;6219777;23;20004;-94
2023/11/20 12:26:12;;;;;;;9.15;1.85;;;;;;;;;;6220210;23;20061;-95
2023/11/20 12:28:42;;;;;;;6.40;1.77;;;;;;;;;;6220183;23;20438;-94
2023/11/20 12:31:09;;;;;;;10.77;1.92;;;;;;;;;;6219893;23;20353;-94
2023/11/20 12:33:43;;;;;;;6.57;2.28;;;;;;;;;;6220092;23;20000;-95
2023/11/20 12:36:10;;;;;;;10.93;2.28;;;;;;;;;;6220170;23;20059;-95
2023/11/20 12:38:37;;;;;;;7.70;2.67;;;;;;;;;;6220545;23;20062;-95
2023/11/20 12:41:04;;;;;;;7.97;2.38;;;;;;;;;;6220356;23;20004;-96
2023/11/20 12:43:37;;;;;;;7.55;2.40;;;;;;;;;;6220526;23;20449;-96
2023/11/20 12:46:06;;;;;;;5.35;1.60;;;;;;;;;;6220649;23;20016;-96
2023/11/20 12:48:35;;;;;;;5.57;2.38;;;;;;;;;;6220354;23;20421;-95
2023/11/20 12:51:02;;;;;;;6.03;1.98;;;;;;;;;;6220059;23;20103;-96
2023/11/20 12:53:28;;;;;;;7.60;2.22;;;;;;;;;;6220437;23;20083;-95
2023/11/20 12:55:55;;;;;;;4.13;2.10;;;;;;;;;;6220147;23;20011;-95
2023/11/20 12:58:24;;;;;;;7.70;1.95;;;;;;;;;;6220527;23;20004;-96
2023/11/20 13:00:53;;;;;;;6.40;1.95;;;;;;;;;;6220466;23;20004;-95
2023/11/20 13:03:19;;;;;;;7.15;1.67;;;;;;;;;;6219611;23;20000;-96
2023/11/20 13:05:50;;;;;;;4.65;1.70;;;;;;;;;;6219485;23;20008;-95
2023/11/20 13:08:17;;;;;;;6.35;1.60;;;;;;;;;;6220465;23;20060;-96
2023/11/20 13:11:13;;;;;;;16.60;2.10;;;;;;;;;;6218636;23;20047;-96
2023/11/20 13:13:39;;;;;;;3.55;1.52;;;;;;;;;;6188792;23;20008;-96
2023/11/20 13:16:21;;;;;;;5.88;1.65;;;;;;;;;;6221039;23;20335;-95
2023/11/20 13:18:49;;;;;;;6.32;1.35;;;;;;;;;;6220621;23;20004;-95
2023/11/20 13:21:28;;;;;;;6.78;1.70;;;;;;;;;;6220215;23;20000;-95
2023/11/20 13:24:10;;;;;;;6.15;1.75;;;;;;;;;;6223239;23;20062;-96
2023/11/20 13:26:47;;;;;;;4.32;2.25;;;;;;;;;;6227530;23;20019;-95
2023/11/20 13:31:52;;;;;;;5.97;2.00;;;;;;;;;;6258310;22;20028;-96
2023/11/20 13:34:19;;;;;;;7.93;2.30;;;;;;;;;;6229762;23;20008;-96
2023/11/20 13:36:57;;;;;;;3.92;1.40;;;;;;;;;;6225723;23;20090;-95
2023/11/20 13:40:11;;;;;;;15.20;3.67;;;;;;;;;;6224515;23;20000;-96
2023/11/20 13:42:49;;;;;;;8.15;2.95;;;;;;;;;;6216596;23;20008;-95
2023/11/20 13:51:58;;;;;;;11.65;2.53;;;;;;;;;;6078638;23;20022;-94
2023/11/20 13:54:58;;;;;;;4.63;2.05;;;;;;;;;;6163930;23;20038;-95
2023/11/20 13:57:54;;;;;;;;;;;;;;;;;;;;;
2023/11/20 14:00:18;;;;;;;3.88;1.63;;;;;;;;;;6198017;22;20031;-95
2023/11/20 14:08:34;;;;;;;5.25;2.00;;;;;;;;;;6270700;22;20349;-96
2023/11/20 14:21:56;;;;;;;8.18;3.63;;;;;;;;;;6282050;22;20850;-96
2023/11/20 14:24:28;;;;;;;5.00;2.05;;;;;;;;;;6253119;22;20091;-95
2023/11/20 14:26:55;;;;;;;5.63;2.38;;;;;;;;;;6252698;22;20372;-96
2023/11/20 14:29:34;;;;;;;;;;;;;;;;;;;;;
2023/11/20 14:32:37;;;;;;;3.75;1.40;;;;;;;;;;6284456;22;20027;-96
2023/11/20 14:35:24;;;;;;;4.78;2.72;;;;;;;;;;6200757;22;20023;-95
2023/11/20 14:37:50;;;;;;;7.72;4.03;;;;;;;;;;6282262;22;20004;-94
2023/11/20 14:40:17;;;;;;;7.28;3.05;;;;;;;;;;6260040;22;20004;-96
2023/11/20 14:42:51;;;;;;;6.78;2.03;;;;;;;;;;6245560;22;20003;-95
2023/11/20 14:45:19;;;;;;;6.30;2.08;;;;;;;;;;6242996;22;20080;-95
2023/11/20 14:47:46;;;;;;;6.35;1.73;;;;;;;;;;6221878;23;20431;-96
2023/11/20 14:50:15;;;;;;;3.72;1.30;;;;;;;;;;6222672;23;20019;-94
2023/11/20 14:52:51;;;;;;;5.43;1.83;;;;;;;;;;6222539;23;20008;-93
2023/11/20 14:55:42;;;;;;;4.43;1.40;;;;;;;;;;6229100;23;20000;-96
2023/11/20 14:58:09;;;;;;;5.85;2.13;;;;;;;;;;6228823;23;20000;-92
2023/11/20 15:00:35;;;;;;;4.63;1.42;;;;;;;;;;6256335;23;20012;-95
2023/11/20 15:03:02;;;;;;;6.50;1.70;;;;;;;;;;6227669;23;20010;-91
2023/11/20 15:05:29;;;;;;;6.28;2.33;;;;;;;;;;6233029;23;20011;-96
2023/11/20 15:08:04;;;;;;;8.90;2.22;;;;;;;;;;6230645;23;20008;-93
2023/11/20 15:10:32;;;;;;;5.75;1.75;;;;;;;;;;6235932;23;20016;-93
2023/11/20 15:13:17;;;;;;;6.28;1.88;;;;;;;;;;6203708;23;20005;-95
2023/11/20 15:15:43;;;;;;;7.60;2.03;;;;;;;;;;6243884;23;20004;-94
2023/11/20 15:18:09;;;;;;;9.57;2.58;;;;;;;;;;6226323;23;20083;-96
2023/11/20 15:20:36;;;;;;;6.65;2.13;;;;;;;;;;6222577;22;20012;-96
2023/11/20 15:23:05;;;;;;;7.25;2.45;;;;;;;;;;6223476;23;20008;-95
2023/11/20 15:25:32;;;;;;;6.18;2.25;;;;;;;;;;6225658;23;20007;-95
2023/11/20 15:28:05;;;;;;;12.48;4.53;;;;;;;;;;6226959;23;20004;-95
2023/11/20 15:30:31;;;;;;;8.00;2.70;;;;;;;;;;6227447;23;20008;-96
2023/11/20 15:32:57;;;;;;;8.38;3.17;;;;;;;;;;6234688;23;20050;-94
2023/11/20 15:37:56;;;;;;;7.78;2.35;;;;;;;;;;6193557;23;20457;-96
2023/11/20 15:40:22;;;;;;;5.47;2.28;;;;;;;;;;6164156;23;20009;-96
2023/11/20 15:42:51;;;;;;;5.72;2.70;;;;;;;;;;6186568;23;20009;-94
2023/11/20 15:45:18;;;;;;;6.15;2.50;;;;;;;;;;6161228;23;20001;-95
2023/11/20 15:47:44;;;;;;;4.43;1.50;;;;;;;;;;6168192;23;20013;-94
2023/11/20 15:50:10;;;;;;;5.53;1.80;;;;;;;;;;6162101;23;20324;-95
2023/11/20 15:52:37;;;;;;;3.45;1.40;;;;;;;;;;6166687;23;20009;-96
2023/11/20 15:55:03;;;;;;;5.05;1.70;;;;;;;;;;6166959;23;20008;-90
2023/11/20 15:57:29;;;;;;;4.38;1.30;;;;;;;;;;6165434;23;20001;-94
2023/11/20 15:59:58;;;;;;;5.72;2.13;;;;;;;;;;6192403;23;20012;-96
2023/11/20 16:02:24;;;;;;;5.90;1.70;;;;;;;;;;6162184;23;20090;-92
2023/11/20 16:05:00;;;;;;;3.70;1.40;;;;;;;;;;6169114;23;20001;-96
2023/11/20 16:07:42;;;;;;;6.03;1.92;;;;;;;;;;6176025;23;19990;-96
2023/11/20 16:10:18;;;;;;;4.25;1.55;;;;;;;;;;6163934;23;20016;-96
2023/11/20 16:12:47;;;;;;;5.95;1.83;;;;;;;;;;6171807;23;19997;-91
2023/11/20 16:15:13;;;;;;;6.28;1.77;;;;;;;;;;6162099;23;20012;-92
2023/11/20 16:17:42;;;;;;;3.88;1.40;;;;;;;;;;6160429;23;20351;-94
2023/11/20 16:20:09;;;;;;;4.35;1.48;;;;;;;;;;6160702;23;20001;-92
2023/11/20 16:22:35;;;;;;;8.55;1.40;;;;;;;;;;6160725;23;20048;-91
2023/11/20 16:25:01;;;;;;;7.97;1.80;;;;;;;;;;6160257;23;20005;-91
2023/11/20 16:27:27;;;;;;;6.43;2.08;;;;;;;;;;6160752;23;20092;-91
2023/11/20 16:29:53;;;;;;;8.25;2.25;;;;;;;;;;6160184;23;20012;-92
2023/11/20 16:32:19;;;;;;;7.85;2.45;;;;;;;;;;6160245;23;20012;-93
2023/11/20 16:34:45;;;;;;;8.95;2.50;;;;;;;;;;6160505;23;20075;-91
2023/11/20 16:37:12;;;;;;;6.50;2.22;;;;;;;;;;6159964;23;20071;-89
2023/11/20 16:39:39;;;;;;;8.77;2.50;;;;;;;;;;6160037;23;20131;-93
2023/11/20 16:42:05;;;;;;;6.93;1.98;;;;;;;;;;6184755;23;20007;-89
2023/11/20 16:44:33;;;;;;;7.82;2.30;;;;;;;;;;6160488;23;20011;-89